Radiance Of The Seas — C6SE7 — position and weather

sailwx.info

Track history (hours):
 
Tides and Currents Weather Stations Pressure Air Temp Water Temp Dewpoint Dewpoint Depression Visibility Wind Speed Wind Dir Waves Ship Positions

Radiance Of The Seas

Operator: Royal Caribbean Cruises Ltd

Last reported at 2019-Jun-16 09:07 UTC. Time now 2019-Jun-17 19:16 UTC.
Position N 54°31' W 131°21'.

Type: Passenger vessel. MMSI: 311319000.

Date/timePositionNaut miles runAvg speedWind from/ knotsBaromVisibWave heightAir tempDewpointWater temp
2019-Jun-16 09:07N 54°31' W 131°21'213.6
2019-Jun-16 08:59N 54°30' W 131°19'713.5
2019-Jun-16 08:30N 54°24' W 131°13'613.1
2019-Jun-16 08:00N 54°19' W 131°07'612.3
2019-Jun-16 07:30N 54°13' W 131°03'713.1
2019-Jun-16 07:00N 54°07' W 131°07'713.4
2019-Jun-16 06:30N 54°01' W 131°11'713.6
2019-Jun-16 06:00N 53°54' W 131°13'713.7
2019-Jun-16 05:30N 53°47' W 131°12'713.8
2019-Jun-16 05:00N 53°40' W 131°10'713.9
2019-Jun-16 04:30N 53°34' W 131°07'714.2
2019-Jun-16 04:00N 53°27' W 131°05'913.9
2019-Jun-16 03:23N 53°19' W 130°58'514.3
2019-Jun-16 03:01N 53°14' W 130°54'9314.0
2019-Jun-15 20:24N 51°52' W 129°45'714.6
2019-Jun-15 19:57N 51°48' W 129°36'614.6
2019-Jun-15 19:30N 51°44' W 129°28'714.5
2019-Jun-15 19:00N 51°40' W 129°18'714.4
2019-Jun-15 18:30N 51°36' W 129°09'714.1
2019-Jun-15 18:01N 51°32' W 128°59'713.8
2019-Jun-15 17:31N 51°27' W 128°51'713.9
2019-Jun-15 17:01N 51°23' W 128°42'713.8
2019-Jun-15 16:30N 51°19' W 128°33'713.7
2019-Jun-15 16:00N 51°15' W 128°24'713.6
2019-Jun-15 15:30N 51°11' W 128°15'714.3
2019-Jun-15 15:00N 51°06' W 128°06'713.9
2019-Jun-15 14:30N 51°02' W 127°57'714.0
2019-Jun-15 14:00N 50°59' W 127°48'611.3
2019-Jun-15 13:30N 50°55' W 127°41'814.5
2019-Jun-15 12:58N 50°51' W 127°31'2314.4
2019-Jun-15 11:21N 50°42' W 126°57'6114.1
2019-Jun-15 07:00N 50°20' W 125°26'814.0
2019-Jun-15 06:27N 50°13' W 125°23'613.7
2019-Jun-15 06:01N 50°07' W 125°20'611.5
2019-Jun-15 05:30N 50°03' W 125°14'5 9.6
2019-Jun-15 05:00N 49°59' W 125°11'1019.3
2019-Jun-15 04:30N 49°52' W 125°00'1020.4
2019-Jun-15 04:00N 49°44' W 124°49'1020.2
2019-Jun-15 03:30N 49°37' W 124°39'1020.1
2019-Jun-15 02:59N 49°29' W 124°28'919.3
2019-Jun-15 02:31N 49°24' W 124°16'1019.8
2019-Jun-15 02:00N 49°22' W 124°01'1020.2
2019-Jun-15 01:30N 49°20' W 123°46'1020.7
2019-Jun-15 01:00N 49°19' W 123°30'1020.3
2019-Jun-15 00:30N 49°19' W 123°15'611.8
2019-Jun-15 00:00N 49°18' W 123°06'1 1.4
2019-Jun-14 23:28N 49°17' W 123°07'0 0.0
2019-Jun-14 22:58N 49°17' W 123°07'0 0.0
2019-Jun-14 22:28N 49°17' W 123°07'0 0.0
2019-Jun-14 21:52N 49°17' W 123°07'0 0.0
2019-Jun-14 21:28N 49°17' W 123°07'0 0.0
2019-Jun-14 20:55N 49°17' W 123°07'0 0.0
2019-Jun-14 20:25N 49°17' W 123°07'0 0.0
2019-Jun-14 19:58N 49°17' W 123°07'0 0.0
2019-Jun-14 19:28N 49°17' W 123°07'0 0.0
2019-Jun-14 18:58N 49°17' W 123°07'0 0.0
2019-Jun-14 18:28N 49°17' W 123°07'0 0.0
2019-Jun-14 17:55N 49°17' W 123°07'0 0.0
2019-Jun-14 17:28N 49°17' W 123°07'0 0.0
2019-Jun-14 16:58N 49°17' W 123°07'0 0.0
2019-Jun-14 16:28N 49°17' W 123°07'0 0.0
2019-Jun-14 15:58N 49°17' W 123°07'0 0.0
2019-Jun-14 15:28N 49°17' W 123°07'0 0.0
2019-Jun-14 14:58N 49°17' W 123°07'0 0.0
2019-Jun-14 14:28N 49°17' W 123°07'0 0.0
2019-Jun-14 14:00N 49°17' W 123°07'1 1.7
2019-Jun-14 13:30N 49°18' W 123°06'5 9.6
2019-Jun-14 13:00N 49°19' W 123°14'612.3
2019-Jun-14 12:30N 49°18' W 123°23'612.0
2019-Jun-14 12:00N 49°18' W 123°32'612.3
2019-Jun-14 11:30N 49°19' W 123°42'612.7
2019-Jun-14 11:00N 49°20' W 123°51'713.2
2019-Jun-14 10:30N 49°22' W 124°01'713.3
2019-Jun-14 10:00N 49°23' W 124°11'713.1
2019-Jun-14 09:30N 49°26' W 124°20'1012.6
2019-Jun-14 08:43N 49°32' W 124°32'413.0
2019-Jun-14 08:27N 49°35' W 124°36'613.1
2019-Jun-14 08:01N 49°39' W 124°42'713.2
2019-Jun-14 07:30N 49°44' W 124°49'713.4
2019-Jun-14 07:00N 49°48' W 124°56'713.3
2019-Jun-14 06:30N 49°53' W 125°03'713.3
2019-Jun-14 06:00N 49°58' W 125°11'815.7
2019-Jun-14 05:31N 50°05' W 125°16'713.6
2019-Jun-14 05:00N 50°11' W 125°22'913.9
2019-Jun-14 04:21N 50°20' W 125°25'9915.5
2019-Jun-13 21:59N 50°58' W 127°48'613.0
2019-Jun-13 21:30N 51°02' W 127°57'714.7
2019-Jun-13 21:00N 51°05' W 128°07'714.8
2019-Jun-13 20:31N 51°09' W 128°17'815.2
2019-Jun-13 20:00N 51°15' W 128°25'714.9
2019-Jun-13 19:30N 51°20' W 128°34'714.5
2019-Jun-13 19:00N 51°24' W 128°44'714.8
2019-Jun-13 18:31N 51°28' W 128°53'715.0
2019-Jun-13 18:01N 51°33' W 129°03'815.2
2019-Jun-13 17:31N 51°37' W 129°13'815.5
2019-Jun-13 17:01N 51°42' W 129°23'815.2
2019-Jun-13 16:31N 51°46' W 129°33'10015.0
2019-Jun-13 09:49N 53°13' W 130°54'1118.1
2019-Jun-13 09:12N 53°24' W 131°03'419.0
2019-Jun-13 09:00N 53°27' W 131°05'918.9
2019-Jun-13 08:30N 53°36' W 131°08'918.7
2019-Jun-13 08:00N 53°46' W 131°11'1019.9
2019-Jun-13 07:30N 53°55' W 131°12'1019.5
2019-Jun-13 07:00N 54°05' W 131°08'1019.9
2019-Jun-13 06:31N 54°14' W 131°04'1019.5
2019-Jun-13 06:00N 54°23' W 131°11'1919.7
2019-Jun-13 05:03N 54°39' W 131°29'248 6.3
2019-Jun-11 13:40N 58°09' W 135°27'1 9.3
2019-Jun-11 13:30N 58°09' W 135°25'610.3
2019-Jun-11 12:56N 58°09' W 135°13'7 0.1
2019-Jun-09 11:47N 58°12' W 135°26'516.8
2019-Jun-09 11:29N 58°15' W 135°34'817.2
2019-Jun-09 11:01N 58°19' W 135°47'1020.4
2019-Jun-09 10:30N 58°19' W 136°07'  
Track history (hours):
 
Tides and Currents Weather Stations Pressure Air Temp Water Temp Dewpoint Dewpoint Depression Visibility Wind Speed Wind Dir Waves Ship Positions

Radiance Of The Seas

Operator: Royal Caribbean Cruises Ltd

Last reported at 2019-Jun-16 09:07 UTC. Time now 2019-Jun-17 19:16 UTC.
Position N 54°31' W 131°21'.

Type: Passenger vessel. MMSI: 311319000.

Date/timePositionNaut miles runAvg speedWind from/ knotsBaromVisibWave heightAir tempDewpointWater temp
2019-Jun-16 09:07N 54°31' W 131°21'213.6
2019-Jun-16 08:59N 54°30' W 131°19'713.5
2019-Jun-16 08:30N 54°24' W 131°13'613.1
2019-Jun-16 08:00N 54°19' W 131°07'612.3
2019-Jun-16 07:30N 54°13' W 131°03'713.1
2019-Jun-16 07:00N 54°07' W 131°07'713.4
2019-Jun-16 06:30N 54°01' W 131°11'713.6
2019-Jun-16 06:00N 53°54' W 131°13'713.7
2019-Jun-16 05:30N 53°47' W 131°12'713.8
2019-Jun-16 05:00N 53°40' W 131°10'713.9
2019-Jun-16 04:30N 53°34' W 131°07'714.2
2019-Jun-16 04:00N 53°27' W 131°05'913.9
2019-Jun-16 03:23N 53°19' W 130°58'514.3
2019-Jun-16 03:01N 53°14' W 130°54'9314.0
2019-Jun-15 20:24N 51°52' W 129°45'714.6
2019-Jun-15 19:57N 51°48' W 129°36'614.6
2019-Jun-15 19:30N 51°44' W 129°28'714.5
2019-Jun-15 19:00N 51°40' W 129°18'714.4
2019-Jun-15 18:30N 51°36' W 129°09'714.1
2019-Jun-15 18:01N 51°32' W 128°59'713.8
2019-Jun-15 17:31N 51°27' W 128°51'713.9
2019-Jun-15 17:01N 51°23' W 128°42'713.8
2019-Jun-15 16:30N 51°19' W 128°33'713.7
2019-Jun-15 16:00N 51°15' W 128°24'713.6
2019-Jun-15 15:30N 51°11' W 128°15'714.3
2019-Jun-15 15:00N 51°06' W 128°06'713.9
2019-Jun-15 14:30N 51°02' W 127°57'714.0
2019-Jun-15 14:00N 50°59' W 127°48'611.3
2019-Jun-15 13:30N 50°55' W 127°41'814.5
2019-Jun-15 12:58N 50°51' W 127°31'2314.4
2019-Jun-15 11:21N 50°42' W 126°57'6114.1
2019-Jun-15 07:00N 50°20' W 125°26'814.0
2019-Jun-15 06:27N 50°13' W 125°23'613.7
2019-Jun-15 06:01N 50°07' W 125°20'611.5
2019-Jun-15 05:30N 50°03' W 125°14'5 9.6
2019-Jun-15 05:00N 49°59' W 125°11'1019.3
2019-Jun-15 04:30N 49°52' W 125°00'1020.4
2019-Jun-15 04:00N 49°44' W 124°49'1020.2
2019-Jun-15 03:30N 49°37' W 124°39'1020.1
2019-Jun-15 02:59N 49°29' W 124°28'919.3
2019-Jun-15 02:31N 49°24' W 124°16'1019.8
2019-Jun-15 02:00N 49°22' W 124°01'1020.2
2019-Jun-15 01:30N 49°20' W 123°46'1020.7
2019-Jun-15 01:00N 49°19' W 123°30'1020.3
2019-Jun-15 00:30N 49°19' W 123°15'611.8
2019-Jun-15 00:00N 49°18' W 123°06'1 1.4
2019-Jun-14 23:28N 49°17' W 123°07'0 0.0
2019-Jun-14 22:58N 49°17' W 123°07'0 0.0
2019-Jun-14 22:28N 49°17' W 123°07'0 0.0
2019-Jun-14 21:52N 49°17' W 123°07'0 0.0
2019-Jun-14 21:28N 49°17' W 123°07'0 0.0
2019-Jun-14 20:55N 49°17' W 123°07'0 0.0
2019-Jun-14 20:25N 49°17' W 123°07'0 0.0
2019-Jun-14 19:58N 49°17' W 123°07'0 0.0
2019-Jun-14 19:28N 49°17' W 123°07'0 0.0
2019-Jun-14 18:58N 49°17' W 123°07'0 0.0
2019-Jun-14 18:28N 49°17' W 123°07'0 0.0
2019-Jun-14 17:55N 49°17' W 123°07'0 0.0
2019-Jun-14 17:28N 49°17' W 123°07'0 0.0
2019-Jun-14 16:58N 49°17' W 123°07'0 0.0
2019-Jun-14 16:28N 49°17' W 123°07'0 0.0
2019-Jun-14 15:58N 49°17' W 123°07'0 0.0
2019-Jun-14 15:28N 49°17' W 123°07'0 0.0
2019-Jun-14 14:58N 49°17' W 123°07'0 0.0
2019-Jun-14 14:28N 49°17' W 123°07'0 0.0
2019-Jun-14 14:00N 49°17' W 123°07'1 1.7
2019-Jun-14 13:30N 49°18' W 123°06'5 9.6
2019-Jun-14 13:00N 49°19' W 123°14'612.3
2019-Jun-14 12:30N 49°18' W 123°23'612.0
2019-Jun-14 12:00N 49°18' W 123°32'612.3
2019-Jun-14 11:30N 49°19' W 123°42'612.7
2019-Jun-14 11:00N 49°20' W 123°51'713.2
2019-Jun-14 10:30N 49°22' W 124°01'713.3
2019-Jun-14 10:00N 49°23' W 124°11'713.1
2019-Jun-14 09:30N 49°26' W 124°20'1012.6
2019-Jun-14 08:43N 49°32' W 124°32'413.0
2019-Jun-14 08:27N 49°35' W 124°36'613.1
2019-Jun-14 08:01N 49°39' W 124°42'713.2
2019-Jun-14 07:30N 49°44' W 124°49'713.4
2019-Jun-14 07:00N 49°48' W 124°56'713.3
2019-Jun-14 06:30N 49°53' W 125°03'713.3
2019-Jun-14 06:00N 49°58' W 125°11'815.7
2019-Jun-14 05:31N 50°05' W 125°16'713.6
2019-Jun-14 05:00N 50°11' W 125°22'913.9
2019-Jun-14 04:21N 50°20' W 125°25'9915.5
2019-Jun-13 21:59N 50°58' W 127°48'613.0
2019-Jun-13 21:30N 51°02' W 127°57'714.7
2019-Jun-13 21:00N 51°05' W 128°07'714.8
2019-Jun-13 20:31N 51°09' W 128°17'815.2
2019-Jun-13 20:00N 51°15' W 128°25'714.9
2019-Jun-13 19:30N 51°20' W 128°34'714.5
2019-Jun-13 19:00N 51°24' W 128°44'714.8
2019-Jun-13 18:31N 51°28' W 128°53'715.0
2019-Jun-13 18:01N 51°33' W 129°03'815.2
2019-Jun-13 17:31N 51°37' W 129°13'815.5
2019-Jun-13 17:01N 51°42' W 129°23'815.2
2019-Jun-13 16:31N 51°46' W 129°33'10015.0
2019-Jun-13 09:49N 53°13' W 130°54'1118.1
2019-Jun-13 09:12N 53°24' W 131°03'419.0
2019-Jun-13 09:00N 53°27' W 131°05'918.9
2019-Jun-13 08:30N 53°36' W 131°08'918.7
2019-Jun-13 08:00N 53°46' W 131°11'1019.9
2019-Jun-13 07:30N 53°55' W 131°12'1019.5
2019-Jun-13 07:00N 54°05' W 131°08'1019.9
2019-Jun-13 06:31N 54°14' W 131°04'1019.5
2019-Jun-13 06:00N 54°23' W 131°11'1919.7
2019-Jun-13 05:03N 54°39' W 131°29'248 6.3
2019-Jun-11 13:40N 58°09' W 135°27'1 9.3
2019-Jun-11 13:30N 58°09' W 135°25'610.3
2019-Jun-11 12:56N 58°09' W 135°13'7 0.1
2019-Jun-09 11:47N 58°12' W 135°26'516.8
2019-Jun-09 11:29N 58°15' W 135°34'817.2
2019-Jun-09 11:01N 58°19' W 135°47'1020.4
2019-Jun-09 10:30N 58°19' W 136°07'  

Dump ship's entire track history